Wetterwerte Langlau
Wetterdaten: aktuell Freitag, 15.10.2021 10:30
Datum Zeit Temp. Luft T. WASSER Luftdruck Wind Richtung Richtung Windben
15.10.2021 10:30 10,1 C 11,7 C 1020,1 hPa 0,0 kts (0 Bft) W-NW 288 0,0 kts (0 Bft)
15.10.2021 10:25 9,9 C 10,6 C 1020,2 hPa 0,0 kts (0 Bft) W-NW 288 0,0 kts (0 Bft)
15.10.2021 10:20 9,6 C 11,1 C 1020,1 hPa 0,0 kts (0 Bft) W-NW 288 0,0 kts (0 Bft)
15.10.2021 10:15 9,3 C 11,7 C 1020,1 hPa 0,0 kts (0 Bft) W-NW 288 0,0 kts (0 Bft)
15.10.2021 10:10 9,1 C 10,0 C 1020,2 hPa 0,0 kts (0 Bft) W-NW 288 0,0 kts (0 Bft)
15.10.2021 10:05 8,9 C 13,9 C 1020,1 hPa 0,0 kts (0 Bft) W-NW 287 0,0 kts (0 Bft)
15.10.2021 10:00 8,7 C 13,3 C 1020,2 hPa 0,0 kts (0 Bft) W-NW 287 0,0 kts (0 Bft)
15.10.2021 09:55 8,3 C 13,3 C 1020,2 hPa 0,0 kts (0 Bft) W-NW 287 0,0 kts (0 Bft)
15.10.2021 09:50 7,9 C 13,3 C 1020,3 hPa 0,0 kts (0 Bft) W-NW 287 0,0 kts (0 Bft)
15.10.2021 09:45 7,4 C 13,3 C 1020,3 hPa 0,0 kts (0 Bft) W-NW 287 0,0 kts (0 Bft)
15.10.2021 09:40 6,9 C 13,3 C 1020,3 hPa 0,0 kts (0 Bft) W-NW 287 0,0 kts (0 Bft)
15.10.2021 09:35 6,6 C 13,3 C 1020,2 hPa 0,0 kts (0 Bft) W-NW 287 0,0 kts (0 Bft)
15.10.2021 09:30 6,4 C 13,3 C 1020,3 hPa 0,0 kts (0 Bft) W-NW 287 0,0 kts (0 Bft)
15.10.2021 09:25 6,2 C 13,3 C 1020,3 hPa 0,0 kts (0 Bft) W-NW 287 0,0 kts (0 Bft)
15.10.2021 09:20 6,2 C 13,3 C 1020,4 hPa 0,0 kts (0 Bft) W-NW 287 0,0 kts (0 Bft)
15.10.2021 09:15 6,0 C 13,3 C 1020,4 hPa 0,0 kts (0 Bft) W-NW 287 0,0 kts (0 Bft)
15.10.2021 09:10 5,8 C 13,3 C 1020,4 hPa 0,0 kts (0 Bft) W-NW 287 0,0 kts (0 Bft)
15.10.2021 09:05 5,4 C 13,3 C 1020,4 hPa 0,0 kts (0 Bft) W-NW 287 0,0 kts (0 Bft)
15.10.2021 09:00 5,1 C 13,3 C 1020,4 hPa 0,0 kts (0 Bft) W-NW 287 0,0 kts (0 Bft)
15.10.2021 08:55 4,7 C 13,3 C 1020,3 hPa 0,0 kts (0 Bft) W-NW 287 0,0 kts (0 Bft)
15.10.2021 08:50 4,3 C 13,3 C 1020,3 hPa 0,0 kts (0 Bft) W-NW 287 0,0 kts (0 Bft)
15.10.2021 08:45 4,0 C 13,3 C 1020,2 hPa 0,0 kts (0 Bft) W-NW 287 0,0 kts (0 Bft)
15.10.2021 08:40 3,8 C 13,3 C 1020,3 hPa 0,0 kts (0 Bft) W-NW 287 0,0 kts (0 Bft)
15.10.2021 08:35 3,8 C 13,3 C 1020,3 hPa 0,0 kts (0 Bft) W-NW 287 0,0 kts (0 Bft)
15.10.2021 08:30 3,8 C 13,3 C 1020,1 hPa 0,0 kts (0 Bft) W-NW 287 0,0 kts (0 Bft)
15.10.2021 08:25 3,8 C 13,3 C 1020,1 hPa 0,0 kts (0 Bft) W-NW 287 0,0 kts (0 Bft)
15.10.2021 08:20 3,8 C 13,3 C 1020,1 hPa 0,0 kts (0 Bft) W-NW 287 0,0 kts (0 Bft)
15.10.2021 08:15 3,8 C 13,3 C 1020,1 hPa 0,0 kts (0 Bft) W-NW 287 0,0 kts (0 Bft)
15.10.2021 08:10 3,8 C 13,3 C 1020,1 hPa 0,0 kts (0 Bft) W-NW 287 0,0 kts (0 Bft)
15.10.2021 08:05 3,8 C 13,3 C 1020,2 hPa 0,0 kts (0 Bft) W-NW 287 0,0 kts (0 Bft)
15.10.2021 08:00 3,8 C 13,3 C 1020,1 hPa 0,0 kts (0 Bft) W-NW 287 0,0 kts (0 Bft)
15.10.2021 07:55 3,9 C 13,3 C 1020,1 hPa 0,0 kts (0 Bft) W-NW 287 0,0 kts (0 Bft)
15.10.2021 07:50 4,0 C 13,3 C 1020,1 hPa 0,0 kts (0 Bft) W-NW 287 0,0 kts (0 Bft)
15.10.2021 07:45 4,0 C 13,3 C 1020,1 hPa 0,0 kts (0 Bft) W-NW 287 0,0 kts (0 Bft)
15.10.2021 07:40 4,0 C 13,3 C 1020,0 hPa 0,0 kts (0 Bft) W-NW 287 0,0 kts (0 Bft)
15.10.2021 07:35 4,1 C 13,3 C 1020,0 hPa 0,0 kts (0 Bft) W-NW 287 0,0 kts (0 Bft)
15.10.2021 07:30 4,2 C 13,3 C 1020,1 hPa 0,0 kts (0 Bft) W-NW 287 0,0 kts (0 Bft)
15.10.2021 07:25 4,3 C 13,3 C 1020,1 hPa 0,0 kts (0 Bft) W-NW 287 0,0 kts (0 Bft)
15.10.2021 07:20 4,3 C 13,3 C 1020,0 hPa 0,4 kts (0 Bft) W-NW 287 2,6 kts (1 Bft)
15.10.2021 07:15 4,3 C 13,3 C 1020,1 hPa 0,3 kts (0 Bft) W-NW 287 1,7 kts (1 Bft)
15.10.2021 07:10 4,3 C 13,3 C 1020,3 hPa 0,0 kts (0 Bft) W-NW 287 0,0 kts (0 Bft)
15.10.2021 07:05 4,2 C 13,3 C 1020,2 hPa 0,0 kts (0 Bft) W-NW 287 0,0 kts (0 Bft)
15.10.2021 07:00 4,1 C 13,3 C 1020,4 hPa 0,0 kts (0 Bft) W-NW 287 0,0 kts (0 Bft)
15.10.2021 06:55 4,0 C 13,3 C 1020,4 hPa 0,0 kts (0 Bft) W-NW 287 0,0 kts (0 Bft)
15.10.2021 06:50 3,9 C 13,3 C 1020,5 hPa 0,0 kts (0 Bft) W-NW 287 0,0 kts (0 Bft)
15.10.2021 06:45 3,9 C 13,3 C 1020,6 hPa 0,0 kts (0 Bft) W-NW 287 0,0 kts (0 Bft)
15.10.2021 06:40 3,8 C 13,3 C 1020,6 hPa 0,0 kts (0 Bft) W-NW 287 0,0 kts (0 Bft)
15.10.2021 06:35 3,8 C 13,3 C 1020,7 hPa 0,0 kts (0 Bft) W-NW 287 0,0 kts (0 Bft)
15.10.2021 06:30 3,8 C 13,3 C 1020,8 hPa 0,0 kts (0 Bft) W-NW 287 0,0 kts (0 Bft)
15.10.2021 06:25 3,9 C 13,3 C 1020,8 hPa 0,0 kts (0 Bft) W-NW 287 0,0 kts (0 Bft)
15.10.2021 06:20 3,9 C 13,3 C 1020,9 hPa 0,0 kts (0 Bft) W-NW 287 0,0 kts (0 Bft)
15.10.2021 06:15 3,9 C 13,3 C 1020,9 hPa 0,0 kts (0 Bft) W-NW 287 0,0 kts (0 Bft)
15.10.2021 06:10 4,0 C 13,3 C 1021,0 hPa 0,0 kts (0 Bft) W-NW 287 0,0 kts (0 Bft)
15.10.2021 06:05 4,0 C 13,3 C 1021,0 hPa 0,0 kts (0 Bft) W-NW 287 0,0 kts (0 Bft)
15.10.2021 06:00 4,1 C 13,3 C 1021,1 hPa 0,0 kts (0 Bft) W-NW 287 0,0 kts (0 Bft)
15.10.2021 05:55 4,1 C 13,3 C 1021,1 hPa 0,0 kts (0 Bft) W-NW 287 0,0 kts (0 Bft)
15.10.2021 05:50 4,1 C 13,3 C 1021,0 hPa 0,0 kts (0 Bft) W-NW 287 0,0 kts (0 Bft)
15.10.2021 05:45 4,0 C 13,3 C 1021,1 hPa 0,0 kts (0 Bft) W-NW 287 0,0 kts (0 Bft)
15.10.2021 05:40 4,0 C 13,3 C 1021,2 hPa 0,0 kts (0 Bft) W-NW 287 0,0 kts (0 Bft)
15.10.2021 05:35 4,0 C 13,3 C 1021,1 hPa 0,0 kts (0 Bft) W-NW 287 0,0 kts (0 Bft)
15.10.2021 05:30 3,9 C 13,3 C 1021,2 hPa 0,0 kts (0 Bft) W-NW 287 0,0 kts (0 Bft)
15.10.2021 05:25 3,9 C 13,3 C 1021,2 hPa 0,0 kts (0 Bft) W-NW 287 0,0 kts (0 Bft)
15.10.2021 05:20 4,0 C 13,3 C 1021,2 hPa 0,0 kts (0 Bft) W-NW 287 0,0 kts (0 Bft)
15.10.2021 05:15 4,1 C 13,3 C 1021,3 hPa 0,0 kts (0 Bft) W-NW 287 0,0 kts (0 Bft)
15.10.2021 05:10 4,0 C 13,3 C 1021,2 hPa 0,0 kts (0 Bft) W-NW 287 0,0 kts (0 Bft)
15.10.2021 05:05 4,1 C 13,3 C 1021,3 hPa 0,0 kts (0 Bft) W-NW 287 0,0 kts (0 Bft)
15.10.2021 05:00 4,0 C 13,3 C 1021,4 hPa 0,0 kts (0 Bft) W-NW 287 0,0 kts (0 Bft)
15.10.2021 04:55 4,0 C 13,3 C 1021,4 hPa 0,0 kts (0 Bft) W-NW 287 0,0 kts (0 Bft)
15.10.2021 04:50 4,1 C 13,3 C 1021,5 hPa 0,0 kts (0 Bft) W-NW 287 0,0 kts (0 Bft)
15.10.2021 04:45 4,2 C 13,3 C 1021,5 hPa 0,0 kts (0 Bft) W-NW 287 0,0 kts (0 Bft)
15.10.2021 04:40 4,3 C 13,9 C 1021,6 hPa 0,0 kts (0 Bft) W-NW 287 0,0 kts (0 Bft)
15.10.2021 04:35 4,3 C 13,9 C 1021,7 hPa 0,0 kts (0 Bft) W-NW 287 0,0 kts (0 Bft)
15.10.2021 04:30 4,3 C 13,3 C 1021,6 hPa 0,0 kts (0 Bft) W-NW 287 0,0 kts (0 Bft)
15.10.2021 04:25 4,4 C 13,3 C 1021,7 hPa 0,0 kts (0 Bft) W-NW 287 0,0 kts (0 Bft)
15.10.2021 04:20 4,6 C 13,9 C 1021,8 hPa 0,0 kts (0 Bft) W-NW 287 0,0 kts (0 Bft)
15.10.2021 04:15 4,7 C 13,9 C 1021,9 hPa 0,0 kts (0 Bft) W-NW 287 0,0 kts (0 Bft)
15.10.2021 04:10 4,8 C 13,9 C 1021,8 hPa 0,0 kts (0 Bft) W-NW 287 0,0 kts (0 Bft)
15.10.2021 04:05 4,9 C 13,9 C 1021,9 hPa 0,1 kts (0 Bft) W-NW 287 0,9 kts (1 Bft)
15.10.2021 04:00 4,8 C 13,9 C 1022,0 hPa 0,2 kts (0 Bft) W-NW 287 1,7 kts (1 Bft)
15.10.2021 03:55 4,8 C 13,9 C 1022,0 hPa 0,0 kts (0 Bft) W-NW 287 0,0 kts (0 Bft)
15.10.2021 03:50 4,7 C 13,9 C 1022,0 hPa 0,0 kts (0 Bft) W-NW 287 0,0 kts (0 Bft)
15.10.2021 03:45 4,8 C 13,9 C 1022,0 hPa 0,0 kts (0 Bft) W-NW 287 0,0 kts (0 Bft)
15.10.2021 03:40 4,8 C 13,9 C 1022,0 hPa 0,0 kts (0 Bft) W-NW 287 0,0 kts (0 Bft)
15.10.2021 03:35 4,8 C 13,9 C 1022,1 hPa 0,0 kts (0 Bft) W-NW 287 0,0 kts (0 Bft)
15.10.2021 03:30 4,8 C 13,9 C 1022,1 hPa 0,0 kts (0 Bft) W-NW 287 0,0 kts (0 Bft)
15.10.2021 03:25 4,8 C 13,9 C 1022,1 hPa 0,0 kts (0 Bft) W-NW 287 0,0 kts (0 Bft)
15.10.2021 03:20 4,9 C 13,9 C 1022,4 hPa 0,0 kts (0 Bft) W-NW 287 0,0 kts (0 Bft)
15.10.2021 03:15 5,1 C 13,9 C 1022,4 hPa 0,0 kts (0 Bft) W-NW 287 0,0 kts (0 Bft)
15.10.2021 03:10 5,2 C 13,9 C 1022,5 hPa 0,0 kts (0 Bft) W-NW 287 0,0 kts (0 Bft)
15.10.2021 03:05 5,3 C 13,9 C 1022,5 hPa 0,0 kts (0 Bft) W-NW 287 0,0 kts (0 Bft)
15.10.2021 03:00 5,3 C 13,9 C 1022,6 hPa 0,0 kts (0 Bft) W-NW 287 0,0 kts (0 Bft)
15.10.2021 02:55 5,4 C 13,9 C 1022,8 hPa 0,0 kts (0 Bft) W-NW 287 0,0 kts (0 Bft)
15.10.2021 02:50 5,5 C 13,9 C 1022,8 hPa 0,0 kts (0 Bft) W-NW 287 0,0 kts (0 Bft)
15.10.2021 02:45 5,6 C 13,9 C 1022,9 hPa 0,0 kts (0 Bft) W-NW 287 0,0 kts (0 Bft)
15.10.2021 02:40 5,7 C 13,9 C 1022,9 hPa 0,0 kts (0 Bft) W-NW 287 0,0 kts (0 Bft)
15.10.2021 02:35 5,7 C 13,9 C 1022,9 hPa 0,0 kts (0 Bft) W-NW 287 0,0 kts (0 Bft)
15.10.2021 02:30 5,7 C 13,9 C 1023,0 hPa 0,0 kts (0 Bft) W-NW 287 0,0 kts (0 Bft)
15.10.2021 02:25 5,8 C 13,9 C 1023,0 hPa 0,0 kts (0 Bft) W-NW 287 0,0 kts (0 Bft)
15.10.2021 02:20 5,9 C 13,9 C 1023,0 hPa 0,0 kts (0 Bft) W-NW 287 0,0 kts (0 Bft)
15.10.2021 02:15 6,0 C 13,9 C 1023,1 hPa 0,0 kts (0 Bft) W-NW 287 0,0 kts (0 Bft)
15.10.2021 02:10 6,2 C 13,9 C 1023,2 hPa 0,0 kts (0 Bft) W-NW 287 0,0 kts (0 Bft)
15.10.2021 02:05 6,2 C 13,9 C 1023,2 hPa 0,0 kts (0 Bft) W-NW 287 0,0 kts (0 Bft)
15.10.2021 02:00 6,3 C 13,9 C 1023,2 hPa 0,0 kts (0 Bft) W-NW 287 0,0 kts (0 Bft)
15.10.2021 01:55 6,3 C 13,9 C 1023,2 hPa 0,0 kts (0 Bft) W-NW 287 0,0 kts (0 Bft)
15.10.2021 01:50 6,3 C 13,9 C 1023,3 hPa 0,0 kts (0 Bft) W-NW 287 0,0 kts (0 Bft)
15.10.2021 01:45 6,3 C 13,9 C 1023,4 hPa 0,0 kts (0 Bft) W-NW 287 0,0 kts (0 Bft)
15.10.2021 01:40 6,3 C 13,9 C 1023,5 hPa 0,0 kts (0 Bft) W-NW 287 0,0 kts (0 Bft)
15.10.2021 01:35 6,5 C 13,9 C 1023,6 hPa 0,0 kts (0 Bft) W-NW 287 0,0 kts (0 Bft)
15.10.2021 01:30 6,7 C 13,9 C 1023,7 hPa 0,0 kts (0 Bft) W-NW 287 0,0 kts (0 Bft)
15.10.2021 01:25 6,8 C 13,9 C 1023,7 hPa 0,0 kts (0 Bft) W-NW 287 0,0 kts (0 Bft)
15.10.2021 01:20 6,8 C 13,9 C 1023,7 hPa 0,0 kts (0 Bft) W-NW 287 0,0 kts (0 Bft)
15.10.2021 01:15 6,9 C 13,9 C 1023,7 hPa 0,0 kts (0 Bft) W-NW 287 0,0 kts (0 Bft)
15.10.2021 01:10 6,9 C 13,9 C 1023,7 hPa 0,0 kts (0 Bft) W-NW 287 0,0 kts (0 Bft)
15.10.2021 01:05 6,9 C 13,9 C 1023,8 hPa 0,0 kts (0 Bft) W-NW 287 0,0 kts (0 Bft)
15.10.2021 01:00 7,0 C 13,9 C 1023,8 hPa 0,0 kts (0 Bft) W-NW 287 0,0 kts (0 Bft)
15.10.2021 00:55 7,1 C 13,9 C 1023,9 hPa 0,0 kts (0 Bft) W-NW 287 0,0 kts (0 Bft)
15.10.2021 00:50 7,1 C 13,9 C 1023,9 hPa 0,0 kts (0 Bft) W-NW 287 0,0 kts (0 Bft)
15.10.2021 00:45 7,1 C 13,9 C 1024,1 hPa 0,0 kts (0 Bft) W-NW 287 0,0 kts (0 Bft)
15.10.2021 00:40 7,2 C 13,9 C 1024,1 hPa 0,0 kts (0 Bft) W-NW 287 0,0 kts (0 Bft)
15.10.2021 00:35 7,3 C 13,9 C 1024,3 hPa 0,0 kts (0 Bft) W-NW 287 0,0 kts (0 Bft)
15.10.2021 00:30 7,4 C 13,9 C 1024,3 hPa 0,0 kts (0 Bft) W-NW 287 0,0 kts (0 Bft)
15.10.2021 00:25 7,5 C 13,9 C 1024,3 hPa 0,0 kts (0 Bft) W-NW 287 0,0 kts (0 Bft)
15.10.2021 00:20 7,6 C 13,9 C 1024,4 hPa 0,0 kts (0 Bft) W-NW 287 0,0 kts (0 Bft)
15.10.2021 00:15 7,7 C 13,9 C 1024,4 hPa 0,0 kts (0 Bft) W-NW 287 0,0 kts (0 Bft)
15.10.2021 00:10 7,8 C 13,9 C 1024,6 hPa 0,0 kts (0 Bft) W-NW 287 0,0 kts (0 Bft)
15.10.2021 00:05 7,8 C 13,9 C 1024,6 hPa 0,0 kts (0 Bft) W-NW 287 0,0 kts (0 Bft)
15.10.2021 00:00 7,9 C 13,9 C 1024,6 hPa 0,0 kts (0 Bft) W-NW 287 0,0 kts (0 Bft)
14.10.2021 23:55 7,9 C 13,9 C 1024,7 hPa 0,0 kts (0 Bft) W-NW 287 0,0 kts (0 Bft)
14.10.2021 23:50 8,0 C 13,9 C 1024,7 hPa 0,0 kts (0 Bft) W-NW 287 0,0 kts (0 Bft)
14.10.2021 23:45 8,1 C 13,9 C 1024,7 hPa 0,0 kts (0 Bft) W-NW 287 0,0 kts (0 Bft)
14.10.2021 23:40 8,2 C 13,9 C 1024,8 hPa 0,0 kts (0 Bft) W-NW 287 0,0 kts (0 Bft)
14.10.2021 23:35 8,3 C 13,9 C 1024,8 hPa 0,0 kts (0 Bft) W-NW 287 0,0 kts (0 Bft)
14.10.2021 23:30 8,3 C 13,9 C 1024,7 hPa 0,0 kts (0 Bft) W-NW 287 0,0 kts (0 Bft)
14.10.2021 23:25 8,4 C 13,9 C 1024,7 hPa 0,0 kts (0 Bft) W-NW 287 0,0 kts (0 Bft)
14.10.2021 23:20 8,5 C 13,9 C 1024,8 hPa 0,0 kts (0 Bft) W-NW 287 0,0 kts (0 Bft)
14.10.2021 23:15 8,6 C 13,9 C 1024,9 hPa 0,0 kts (0 Bft) W-NW 287 0,0 kts (0 Bft)
14.10.2021 23:10 8,6 C 13,9 C 1024,9 hPa 0,0 kts (0 Bft) W-NW 287 0,0 kts (0 Bft)
14.10.2021 23:05 8,7 C 13,9 C 1025,0 hPa 0,0 kts (0 Bft) W-NW 287 0,0 kts (0 Bft)
14.10.2021 23:00 8,9 C 13,9 C 1025,0 hPa 0,0 kts (0 Bft) W-NW 287 0,0 kts (0 Bft)
14.10.2021 22:55 9,1 C 13,9 C 1025,1 hPa 0,0 kts (0 Bft) W-NW 287 0,0 kts (0 Bft)
14.10.2021 22:50 9,2 C 13,9 C 1025,2 hPa 0,0 kts (0 Bft) W-NW 287 0,0 kts (0 Bft)
14.10.2021 22:45 9,2 C 13,9 C 1025,3 hPa 0,0 kts (0 Bft) W-NW 287 0,0 kts (0 Bft)
14.10.2021 22:40 9,3 C 13,9 C 1025,3 hPa 0,0 kts (0 Bft) W-NW 287 0,0 kts (0 Bft)
14.10.2021 22:35 9,3 C 13,9 C 1025,3 hPa 0,0 kts (0 Bft) W-NW 287 0,0 kts (0 Bft)
14.10.2021 22:30 9,4 C 13,9 C 1025,2 hPa 0,0 kts (0 Bft) W-NW 287 0,0 kts (0 Bft)
14.10.2021 22:25 9,4 C 13,9 C 1025,3 hPa 0,0 kts (0 Bft) W-NW 287 0,0 kts (0 Bft)
14.10.2021 22:20 9,4 C 13,9 C 1025,4 hPa 0,0 kts (0 Bft) W-NW 287 0,0 kts (0 Bft)
14.10.2021 22:15 9,5 C 13,9 C 1025,4 hPa 0,0 kts (0 Bft) W-NW 287 0,0 kts (0 Bft)
14.10.2021 22:10 9,5 C 13,9 C 1025,3 hPa 0,0 kts (0 Bft) W-NW 287 0,0 kts (0 Bft)
14.10.2021 22:05 9,6 C 13,9 C 1025,3 hPa 0,0 kts (0 Bft) W-NW 287 0,0 kts (0 Bft)
14.10.2021 22:00 9,6 C 13,9 C 1025,4 hPa 0,0 kts (0 Bft) W-NW 287 0,0 kts (0 Bft)
14.10.2021 21:55 9,6 C 13,9 C 1025,4 hPa 0,0 kts (0 Bft) W-NW 287 0,0 kts (0 Bft)
14.10.2021 21:50 9,6 C 13,9 C 1025,3 hPa 0,0 kts (0 Bft) W-NW 287 0,0 kts (0 Bft)
14.10.2021 21:45 9,6 C 13,9 C 1025,3 hPa 0,0 kts (0 Bft) W-NW 287 0,0 kts (0 Bft)
14.10.2021 21:40 9,6 C 13,9 C 1025,4 hPa 0,0 kts (0 Bft) W-NW 287 0,9 kts (1 Bft)
14.10.2021 21:35 9,6 C 13,9 C 1025,5 hPa 0,0 kts (0 Bft) W-NW 287 0,9 kts (1 Bft)
14.10.2021 21:30 9,6 C 13,9 C 1025,5 hPa 0,0 kts (0 Bft) W-NW 287 0,0 kts (0 Bft)
14.10.2021 21:25 9,6 C 13,9 C 1025,5 hPa 0,0 kts (0 Bft) W-NW 287 0,0 kts (0 Bft)
14.10.2021 21:20 9,6 C 13,9 C 1025,6 hPa 0,0 kts (0 Bft) W-NW 287 0,9 kts (1 Bft)
14.10.2021 21:15 9,6 C 13,9 C 1025,5 hPa 0,0 kts (0 Bft) W-NW 287 0,0 kts (0 Bft)
14.10.2021 21:10 9,6 C 13,9 C 1025,5 hPa 0,0 kts (0 Bft) W-NW 287 0,0 kts (0 Bft)
14.10.2021 21:05 9,6 C 13,9 C 1025,5 hPa 0,0 kts (0 Bft) W-NW 287 0,0 kts (0 Bft)
14.10.2021 21:00 9,6 C 13,9 C 1025,6 hPa 0,2 kts (0 Bft) W-NW 287 2,6 kts (1 Bft)
14.10.2021 20:55 9,6 C 13,9 C 1025,6 hPa 0,5 kts (0 Bft) W-NW 287 1,7 kts (1 Bft)
14.10.2021 20:50 9,5 C 13,9 C 1025,6 hPa 0,0 kts (0 Bft) W-NW 287 0,0 kts (0 Bft)
14.10.2021 20:45 9,4 C 13,9 C 1025,6 hPa 0,0 kts (0 Bft) W-NW 287 0,0 kts (0 Bft)
14.10.2021 20:40 9,4 C 13,9 C 1025,6 hPa 0,0 kts (0 Bft) W-NW 287 0,0 kts (0 Bft)
14.10.2021 20:35 9,4 C 13,9 C 1025,7 hPa 0,0 kts (0 Bft) W-NW 287 0,0 kts (0 Bft)
14.10.2021 20:30 9,5 C 13,9 C 1025,7 hPa 0,0 kts (0 Bft) W-NW 287 0,0 kts (0 Bft)
14.10.2021 20:25 9,6 C 13,9 C 1025,8 hPa 0,0 kts (0 Bft) W-NW 287 0,0 kts (0 Bft)
14.10.2021 20:20 9,7 C 13,9 C 1025,8 hPa 0,0 kts (0 Bft) W-NW 287 0,0 kts (0 Bft)
14.10.2021 20:15 9,7 C 13,9 C 1025,9 hPa 0,0 kts (0 Bft) W-NW 287 0,0 kts (0 Bft)
14.10.2021 20:10 9,8 C 13,9 C 1025,9 hPa 0,0 kts (0 Bft) W-NW 287 0,0 kts (0 Bft)
14.10.2021 20:05 9,8 C 13,9 C 1025,9 hPa 0,0 kts (0 Bft) W-NW 287 0,0 kts (0 Bft)
14.10.2021 20:00 9,8 C 13,9 C 1025,9 hPa 0,0 kts (0 Bft) W-NW 287 0,0 kts (0 Bft)
14.10.2021 19:55 9,8 C 13,9 C 1025,9 hPa 0,0 kts (0 Bft) W-NW 287 0,0 kts (0 Bft)
14.10.2021 19:50 9,8 C 13,9 C 1025,9 hPa 0,0 kts (0 Bft) W-NW 287 0,0 kts (0 Bft)
14.10.2021 19:45 9,8 C 13,9 C 1025,9 hPa 0,0 kts (0 Bft) W-NW 287 0,0 kts (0 Bft)
14.10.2021 19:40 9,8 C 13,9 C 1026,0 hPa 0,0 kts (0 Bft) W-NW 287 0,0 kts (0 Bft)
14.10.2021 19:35 9,8 C 13,9 C 1026,0 hPa 0,0 kts (0 Bft) W-NW 287 0,9 kts (1 Bft)
14.10.2021 19:30 9,8 C 13,9 C 1026,0 hPa 0,0 kts (0 Bft) W-NW 287 0,0 kts (0 Bft)
14.10.2021 19:25 9,8 C 13,9 C 1026,0 hPa 0,0 kts (0 Bft) W-NW 287 0,0 kts (0 Bft)
14.10.2021 19:20 9,8 C 13,9 C 1026,0 hPa 0,0 kts (0 Bft) W-NW 287 0,0 kts (0 Bft)
14.10.2021 19:15 9,8 C 13,9 C 1026,0 hPa 0,0 kts (0 Bft) W-NW 287 0,9 kts (1 Bft)
14.10.2021 19:10 9,8 C 13,9 C 1026,0 hPa 0,5 kts (0 Bft) W-NW 287 2,6 kts (1 Bft)
14.10.2021 19:05 9,8 C 13,9 C 1025,9 hPa 0,9 kts (1 Bft) W-NW 287 3,5 kts (2 Bft)
14.10.2021 19:00 9,8 C 13,9 C 1026,0 hPa 0,5 kts (0 Bft) W-NW 287 3,5 kts (2 Bft)
14.10.2021 18:55 9,9 C 13,9 C 1026,0 hPa 0,1 kts (0 Bft) W-NW 287 0,9 kts (1 Bft)
14.10.2021 18:50 9,9 C 13,9 C 1026,0 hPa 0,3 kts (0 Bft) W-NW 287 2,6 kts (1 Bft)
14.10.2021 18:45 9,9 C 13,9 C 1026,0 hPa 0,9 kts (1 Bft) W-NW 287 2,6 kts (1 Bft)
14.10.2021 18:40 10,0 C 13,9 C 1026,0 hPa 2,5 kts (1 Bft) W-NW 287 4,3 kts (2 Bft)
14.10.2021 18:35 9,9 C 13,9 C 1026,0 hPa 2,4 kts (1 Bft) W-NW 288 6,1 kts (2 Bft)
14.10.2021 18:30 9,9 C 13,9 C 1025,9 hPa 2,4 kts (1 Bft) W-NW 300 5,2 kts (2 Bft)
14.10.2021 18:25 9,9 C 13,9 C 1026,0 hPa 0,0 kts (0 Bft) W-NW 300 0,9 kts (1 Bft)
14.10.2021 18:20 9,9 C 13,9 C 1026,0 hPa 0,9 kts (1 Bft) W-NW 300 2,6 kts (1 Bft)
14.10.2021 18:15 9,9 C 13,9 C 1025,9 hPa 0,0 kts (0 Bft) W-NW 300 0,9 kts (1 Bft)
14.10.2021 18:10 9,9 C 13,9 C 1026,0 hPa 0,3 kts (0 Bft) W-NW 300 2,6 kts (1 Bft)
14.10.2021 18:05 9,9 C 13,9 C 1026,0 hPa 0,2 kts (0 Bft) W-NW 300 2,6 kts (1 Bft)
14.10.2021 18:00 9,9 C 13,9 C 1026,0 hPa 0,1 kts (0 Bft) W-NW 300 0,9 kts (1 Bft)
14.10.2021 17:55 9,9 C 13,9 C 1026,0 hPa 0,2 kts (0 Bft) W-NW 300 0,9 kts (1 Bft)
14.10.2021 17:50 9,9 C 13,9 C 1026,0 hPa 0,3 kts (0 Bft) W-NW 300 1,7 kts (1 Bft)
14.10.2021 17:45 10,0 C 13,9 C 1026,0 hPa 0,1 kts (0 Bft) W-NW 300 0,9 kts (1 Bft)
14.10.2021 17:40 10,1 C 13,9 C 1026,0 hPa 0,4 kts (0 Bft) W-NW 300 2,6 kts (1 Bft)
14.10.2021 17:35 10,2 C 13,9 C 1026,1 hPa 0,2 kts (0 Bft) W-NW 300 2,6 kts (1 Bft)
14.10.2021 17:30 10,3 C 13,9 C 1026,1 hPa 0,4 kts (0 Bft) W-NW 300 2,6 kts (1 Bft)
14.10.2021 17:25 10,3 C 13,9 C 1026,1 hPa 0,0 kts (0 Bft) W-NW 300 0,0 kts (0 Bft)
14.10.2021 17:20 10,4 C 13,9 C 1026,1 hPa 0,2 kts (0 Bft) W-NW 300 1,7 kts (1 Bft)
14.10.2021 17:15 10,6 C 13,9 C 1026,2 hPa 1,0 kts (1 Bft) W-NW 300 3,5 kts (2 Bft)
14.10.2021 17:10 10,7 C 13,9 C 1026,2 hPa 1,9 kts (1 Bft) W-NW 300 3,5 kts (2 Bft)
14.10.2021 17:05 10,8 C 13,9 C 1026,2 hPa 5,0 kts (2 Bft) W-NW 300 7,8 kts (3 Bft)
14.10.2021 17:00 10,8 C 13,9 C 1026,1 hPa 4,0 kts (2 Bft) W-NW 299 8,7 kts (3 Bft)
14.10.2021 16:55 10,8 C 13,9 C 1026,1 hPa 3,8 kts (2 Bft) W-NW 285 7,8 kts (3 Bft)
14.10.2021 16:50 10,8 C 13,9 C 1026,2 hPa 3,8 kts (2 Bft) W-NW 284 6,1 kts (2 Bft)
14.10.2021 16:45 10,8 C 13,9 C 1026,2 hPa 4,8 kts (2 Bft) W 280 9,6 kts (3 Bft)
14.10.2021 16:40 10,8 C 13,9 C 1026,2 hPa 4,0 kts (2 Bft) W-NW 285 7,8 kts (3 Bft)
14.10.2021 16:35 10,8 C 13,9 C 1026,2 hPa 4,4 kts (2 Bft) W 278 7,0 kts (3 Bft)
14.10.2021 16:30 10,8 C 13,9 C 1026,2 hPa 3,9 kts (2 Bft) W 277 7,0 kts (3 Bft)
14.10.2021 16:25 10,9 C 13,9 C 1026,2 hPa 3,2 kts (2 Bft) W-NW 290 5,2 kts (2 Bft)
14.10.2021 16:20 10,9 C 13,9 C 1026,2 hPa 3,7 kts (2 Bft) W-NW 290 6,1 kts (2 Bft)
14.10.2021 16:15 10,9 C 13,9 C 1026,3 hPa 4,8 kts (2 Bft) W-NW 290 7,8 kts (3 Bft)
14.10.2021 16:10 10,8 C 13,9 C 1026,3 hPa 4,9 kts (2 Bft) W-NW 298 7,8 kts (3 Bft)
14.10.2021 16:05 10,8 C 13,9 C 1026,3 hPa 6,8 kts (3 Bft) W-NW 295 10,4 kts (3 Bft)
14.10.2021 16:00 10,8 C 13,9 C 1026,3 hPa 5,0 kts (2 Bft) W 265 7,8 kts (3 Bft)
14.10.2021 15:55 10,8 C 13,9 C 1026,3 hPa 7,1 kts (3 Bft) W-NW 284 11,3 kts (4 Bft)
14.10.2021 15:50 10,7 C 13,9 C 1026,4 hPa 6,7 kts (2 Bft) W-NW 295 11,3 kts (4 Bft)
14.10.2021 15:45 10,7 C 13,9 C 1026,5 hPa 6,0 kts (2 Bft) W-NW 296 8,7 kts (3 Bft)
14.10.2021 15:40 10,7 C 13,9 C 1026,5 hPa 5,7 kts (2 Bft) NW 309 9,6 kts (3 Bft)
14.10.2021 15:35 10,7 C 13,9 C 1026,7 hPa 5,8 kts (2 Bft) W-NW 283 10,4 kts (3 Bft)
14.10.2021 15:30 10,7 C 13,9 C 1026,7 hPa 5,2 kts (2 Bft) W-NW 294 7,8 kts (3 Bft)
14.10.2021 15:25 10,6 C 13,9 C 1026,7 hPa 5,3 kts (2 Bft) W 266 7,8 kts (3 Bft)
14.10.2021 15:20 10,6 C 13,9 C 1026,7 hPa 3,7 kts (2 Bft) W 275 7,8 kts (3 Bft)
14.10.2021 15:15 10,5 C 13,9 C 1026,8 hPa 6,2 kts (2 Bft) W 276 9,6 kts (3 Bft)
14.10.2021 15:10 10,4 C 13,9 C 1026,8 hPa 5,7 kts (2 Bft) W-NW 287 8,7 kts (3 Bft)
14.10.2021 15:05 10,4 C 13,9 C 1026,9 hPa 6,5 kts (2 Bft) W-NW 288 10,4 kts (3 Bft)
14.10.2021 15:00 10,3 C 13,9 C 1026,8 hPa 7,0 kts (3 Bft) W 273 12,1 kts (4 Bft)
14.10.2021 14:55 10,2 C 13,9 C 1026,9 hPa 6,3 kts (2 Bft) W-NW 286 10,4 kts (3 Bft)
14.10.2021 14:50 10,2 C 13,9 C 1026,9 hPa 4,3 kts (2 Bft) W 269 7,0 kts (3 Bft)
14.10.2021 14:45 10,1 C 13,9 C 1026,9 hPa 5,4 kts (2 Bft) W-NW 300 8,7 kts (3 Bft)
14.10.2021 14:40 10,1 C 13,9 C 1027,0 hPa 4,7 kts (2 Bft) W-NW 287 8,7 kts (3 Bft)
14.10.2021 14:35 10,0 C 13,9 C 1026,9 hPa 5,2 kts (2 Bft) W-NW 294 7,8 kts (3 Bft)
14.10.2021 14:30 9,9 C 13,9 C 1027,0 hPa 5,8 kts (2 Bft) W-NW 292 9,6 kts (3 Bft)
14.10.2021 14:25 9,9 C 13,9 C 1027,1 hPa 5,9 kts (2 Bft) W 281 11,3 kts (4 Bft)
14.10.2021 14:20 9,8 C 13,9 C 1027,2 hPa 5,1 kts (2 Bft) W 279 10,4 kts (3 Bft)
14.10.2021 14:15 9,8 C 13,9 C 1027,3 hPa 5,0 kts (2 Bft) W-NW 283 7,8 kts (3 Bft)
14.10.2021 14:10 9,8 C 13,9 C 1027,3 hPa 5,5 kts (2 Bft) W-NW 289 8,7 kts (3 Bft)
14.10.2021 14:05 9,8 C 13,9 C 1027,5 hPa 4,2 kts (2 Bft) W-NW 288 8,7 kts (3 Bft)
14.10.2021 14:00 9,7 C 13,9 C 1027,5 hPa 5,2 kts (2 Bft) W 279 7,8 kts (3 Bft)
14.10.2021 13:55 9,7 C 13,9 C 1027,6 hPa 5,0 kts (2 Bft) W-NW 295 9,6 kts (3 Bft)
14.10.2021 13:50 9,7 C 13,9 C 1027,5 hPa 4,9 kts (2 Bft) W 270 7,0 kts (3 Bft)
14.10.2021 13:45 9,6 C 13,9 C 1027,7 hPa 5,6 kts (2 Bft) W 277 10,4 kts (3 Bft)
14.10.2021 13:40 9,6 C 13,9 C 1027,7 hPa 3,4 kts (2 Bft) W-NW 291 7,8 kts (3 Bft)
14.10.2021 13:35 9,6 C 13,9 C 1027,6 hPa 4,8 kts (2 Bft) W-SW 253 9,6 kts (3 Bft)
14.10.2021 13:30 9,6 C 13,9 C 1027,7 hPa 5,4 kts (2 Bft) W-NW 294 8,7 kts (3 Bft)
14.10.2021 13:25 9,6 C 13,9 C 1027,7 hPa 4,9 kts (2 Bft) W-NW 293 7,0 kts (3 Bft)
14.10.2021 13:20 9,5 C 13,9 C 1027,7 hPa 4,4 kts (2 Bft) W-NW 288 7,8 kts (3 Bft)
14.10.2021 13:15 9,4 C 13,9 C 1027,7 hPa 3,9 kts (2 Bft) W 275 7,8 kts (3 Bft)
14.10.2021 13:10 9,4 C 13,9 C 1027,7 hPa 4,0 kts (2 Bft) W-NW 284 7,0 kts (3 Bft)
14.10.2021 13:05 9,4 C 13,9 C 1027,8 hPa 4,3 kts (2 Bft) W-NW 293 7,0 kts (3 Bft)
14.10.2021 13:00 9,3 C 13,9 C 1027,9 hPa 5,3 kts (2 Bft) W-NW 301 8,7 kts (3 Bft)
14.10.2021 12:55 9,2 C 13,9 C 1027,9 hPa 5,6 kts (2 Bft) W-NW 302 7,8 kts (3 Bft)
14.10.2021 12:50 9,1 C 13,9 C 1027,9 hPa 4,7 kts (2 Bft) NW 308 8,7 kts (3 Bft)
14.10.2021 12:45 9,0 C 13,9 C 1027,9 hPa 4,7 kts (2 Bft) NW 304 8,7 kts (3 Bft)
14.10.2021 12:40 8,9 C 13,9 C 1027,9 hPa 3,7 kts (2 Bft) W-NW 288 7,8 kts (3 Bft)
14.10.2021 12:35 8,9 C 13,9 C 1027,9 hPa 3,2 kts (2 Bft) W-NW 296 6,1 kts (2 Bft)
14.10.2021 12:30 8,9 C 13,9 C 1027,9 hPa 3,3 kts (2 Bft) W-NW 296 6,1 kts (2 Bft)
14.10.2021 12:25 8,9 C 13,9 C 1027,9 hPa 3,1 kts (2 Bft) W-NW 300 5,2 kts (2 Bft)
14.10.2021 12:20 8,8 C 13,9 C 1028,0 hPa 4,2 kts (2 Bft) W-NW 302 8,7 kts (3 Bft)
14.10.2021 12:15 8,8 C 13,9 C 1028,0 hPa 4,4 kts (2 Bft) W 278 7,8 kts (3 Bft)
14.10.2021 12:10 8,8 C 13,9 C 1028,0 hPa 4,3 kts (2 Bft) W 280 7,8 kts (3 Bft)
14.10.2021 12:05 8,8 C 13,9 C 1028,1 hPa 5,2 kts (2 Bft) W-NW 292 7,8 kts (3 Bft)
14.10.2021 12:00 8,7 C 13,9 C 1028,1 hPa 4,0 kts (2 Bft) W-NW 294 8,7 kts (3 Bft)
14.10.2021 11:55 8,5 C 13,9 C 1028,1 hPa 3,9 kts (2 Bft) W-NW 289 6,1 kts (2 Bft)
14.10.2021 11:50 8,4 C 13,9 C 1028,1 hPa 5,2 kts (2 Bft) W 277 9,6 kts (3 Bft)
14.10.2021 11:45 8,4 C 13,9 C 1028,1 hPa 4,6 kts (2 Bft) NW 305 8,7 kts (3 Bft)
14.10.2021 11:40 8,3 C 13,9 C 1028,1 hPa 4,0 kts (2 Bft) W-NW 294 7,0 kts (3 Bft)
14.10.2021 11:35 8,3 C 13,9 C 1028,2 hPa 4,9 kts (2 Bft) NW 312 8,7 kts (3 Bft)
14.10.2021 11:30 8,2 C 13,9 C 1028,1 hPa 5,8 kts (2 Bft) NW 304 9,6 kts (3 Bft)
14.10.2021 11:25 8,1 C 13,9 C 1028,1 hPa 5,3 kts (2 Bft) W-NW 295 8,7 kts (3 Bft)
14.10.2021 11:20 7,9 C 13,9 C 1028,3 hPa 3,7 kts (2 Bft) W-NW 298 7,0 kts (3 Bft)
14.10.2021 11:15 7,8 C 13,9 C 1028,3 hPa 4,5 kts (2 Bft) W-NW 287 7,0 kts (3 Bft)
14.10.2021 11:10 7,7 C 13,9 C 1028,2 hPa 4,2 kts (2 Bft) W-NW 286 7,8 kts (3 Bft)
14.10.2021 11:05 7,7 C 13,9 C 1028,2 hPa 5,2 kts (2 Bft) W-NW 291 8,7 kts (3 Bft)
14.10.2021 11:00 7,6 C 13,9 C 1028,3 hPa 3,7 kts (2 Bft) W-NW 290 6,1 kts (2 Bft)
_ Min-Zeit 06:30 10:10 07:20 17:25 - - 17:25
Minimum _ 3,8 C 10,0 C 1020,0 hPa 0,0 kts (0 Bft) - - 0,0 kts (0 Bft)
_ Max-Zeit 16:15 11:00 11:00 15:55 - - 15:00
Maximum _ 10,9 C 13,9 C 1028,3 hPa 7,1 kts
W-NW (3 Bft)
- - 12,1 kts
NW (4 Bft)
Durchschnitt _ 7,7 C 13,7 C 1024,6 hPa 1,5 kts (1 Bft) W-NW - 2,7 kts (1 Bft)